Observation data for Lamesa on 07/20/2019      Previous  Date       Current Mesonet Observations  Soil Data  Daily Summary Page  Observations in Plain Language
KLES 200500Z 17012G19KT 29/12 A2996 RMK A01 T02860115  RH  036%=      5-min Rain = 0
KLES 200505Z 17012KT 29/12 A2996 RMK A01 T02850116  RH  036%=      5-min Rain = 0
KLES 200510Z 17013KT 29/12 A2996 RMK A01 T02850117  RH  037%=      5-min Rain = 0
KLES 200515Z 17013KT 28/12 A2996 RMK A01 T02840118  RH  037%=      5-min Rain = 0
KLES 200520Z 17012G17KT 28/12 A2996 RMK A01 T02830118  RH  037%=      5-min Rain = 0
KLES 200525Z 17013KT 28/12 A2996 RMK A01 T02820119  RH  038%=      5-min Rain = 0
KLES 200530Z 17013KT 28/12 A2997 RMK A01 T02820119  RH  038%=      5-min Rain = 0
KLES 200535Z 17012KT 28/12 A2997 RMK A01 T02800120  RH  038%=      5-min Rain = 0
KLES 200540Z 17012KT 28/12 A2997 RMK A01 T02790121  RH  039%=      5-min Rain = 0
KLES 200545Z 17011KT 28/12 A2997 RMK A01 T02780121  RH  039%=      5-min Rain = 0
KLES 200550Z 17012KT 28/12 A2997 RMK A01 T02770122  RH  040%=      5-min Rain = 0
KLES 200555Z 17010KT 28/12 A2997 RMK A01 T02760122  RH  040%=      5-min Rain = 0
KLES 200600Z 17011KT 27/12 A2997 RMK A01 T02740123  RH  041%=      5-min Rain = 0
KLES 200605Z 17010KT 27/12 A2996 RMK A01 T02720124  RH  041%=      5-min Rain = 0
KLES 200610Z 17010KT 27/13 A2996 RMK A01 T02700125  RH  042%=      5-min Rain = 0
KLES 200615Z 17009KT 27/13 A2996 RMK A01 T02690125  RH  042%=      5-min Rain = 0
KLES 200620Z 18010KT 27/13 A2996 RMK A01 T02680125  RH  043%=      5-min Rain = 0
KLES 200625Z 17010KT 27/13 A2996 RMK A01 T02670126  RH  043%=      5-min Rain = 0
KLES 200630Z 17010KT 27/13 A2996 RMK A01 T02650126  RH  044%=      5-min Rain = 0
KLES 200635Z 18010KT 27/13 A2996 RMK A01 T02650126  RH  044%=      5-min Rain = 0
KLES 200640Z 17010KT 27/13 A2996 RMK A01 T02650126  RH  044%=      5-min Rain = 0
KLES 200645Z 17010KT 27/13 A2996 RMK A01 T02650127  RH  044%=      5-min Rain = 0
KLES 200650Z 17009G14KT 26/13 A2996 RMK A01 T02640127  RH  044%=      5-min Rain = 0
KLES 200655Z 17009KT 26/13 A2996 RMK A01 T02640128  RH  045%=      5-min Rain = 0
KLES 200700Z 17009KT 26/13 A2996 RMK A01 T02630128  RH  045%=      5-min Rain = 0
KLES 200705Z 16008KT 26/13 A2996 RMK A01 T02620128  RH  045%=      5-min Rain = 0
KLES 200710Z 16008KT 26/13 A2996 RMK A01 T02610128  RH  045%=      5-min Rain = 0
KLES 200715Z 17008KT 26/13 A2996 RMK A01 T02600128  RH  046%=      5-min Rain = 0
KLES 200720Z 17008KT 26/13 A2996 RMK A01 T02580128  RH  046%=      5-min Rain = 0
KLES 200725Z 17007KT 26/13 A2996 RMK A01 T02560129  RH  047%=      5-min Rain = 0
KLES 200730Z 16007KT 25/13 A2996 RMK A01 T02530129  RH  048%=      5-min Rain = 0
KLES 200735Z 16007KT 25/13 A2996 RMK A01 T02520129  RH  048%=      5-min Rain = 0
KLES 200740Z 16007KT 25/13 A2996 RMK A01 T02510128  RH  048%=      5-min Rain = 0
KLES 200745Z 16009KT 25/13 A2996 RMK A01 T02530129  RH  048%=      5-min Rain = 0
KLES 200750Z 17010KT 25/13 A2995 RMK A01 T02540129  RH  048%=      5-min Rain = 0
KLES 200755Z 16008KT 26/13 A2995 RMK A01 T02550130  RH  048%=      5-min Rain = 0
KLES 200800Z 16008KT 25/13 A2995 RMK A01 T02530130  RH  048%=      5-min Rain = 0
KLES 200805Z 15007KT 25/13 A2995 RMK A01 T02510129  RH  049%=      5-min Rain = 0
KLES 200810Z 15007KT 25/13 A2995 RMK A01 T02480129  RH  049%=      5-min Rain = 0
KLES 200815Z 15007KT 25/13 A2995 RMK A01 T02460131  RH  051%=      5-min Rain = 0
KLES 200820Z 15007KT 24/13 A2995 RMK A01 T02430132  RH  052%=      5-min Rain = 0
KLES 200825Z 15007KT 24/13 A2995 RMK A01 T02410133  RH  053%=      5-min Rain = 0
KLES 200830Z 15007KT 24/13 A2995 RMK A01 T02410133  RH  053%=      5-min Rain = 0
KLES 200835Z 16007KT 24/13 A2996 RMK A01 T02410133  RH  053%=      5-min Rain = 0
KLES 200840Z 16007KT 24/13 A2996 RMK A01 T02410133  RH  053%=      5-min Rain = 0
KLES 200845Z 16008KT 24/13 A2995 RMK A01 T02420134  RH  053%=      5-min Rain = 0
KLES 200850Z 16008KT 24/14 A2995 RMK A01 T02430135  RH  053%=      5-min Rain = 0
KLES 200855Z 16008KT 24/14 A2995 RMK A01 T02430136  RH  053%=      5-min Rain = 0
KLES 200900Z 15008KT 24/14 A2995 RMK A01 T02420136  RH  054%=      5-min Rain = 0
KLES 200905Z 15007KT 24/14 A2995 RMK A01 T02420137  RH  054%=      5-min Rain = 0
KLES 200910Z 15007KT 24/14 A2995 RMK A01 T02400137  RH  055%=      5-min Rain = 0
KLES 200915Z 16007KT 24/14 A2995 RMK A01 T02390138  RH  055%=      5-min Rain = 0
KLES 200920Z 16007KT 24/14 A2995 RMK A01 T02380139  RH  056%=      5-min Rain = 0
KLES 200925Z 16008KT 24/14 A2995 RMK A01 T02380140  RH  057%=      5-min Rain = 0
KLES 200930Z 16009KT 24/14 A2995 RMK A01 T02380142  RH  057%=      5-min Rain = 0
KLES 200935Z 15007KT 24/14 A2995 RMK A01 T02380142  RH  057%=      5-min Rain = 0
KLES 200940Z 15006KT 24/14 A2995 RMK A01 T02370143  RH  058%=      5-min Rain = 0
KLES 200945Z 15005KT 24/14 A2995 RMK A01 T02350144  RH  059%=      5-min Rain = 0
KLES 200950Z 15006KT 23/14 A2995 RMK A01 T02330144  RH  060%=      5-min Rain = 0
KLES 200955Z 15006KT 23/14 A2995 RMK A01 T02310144  RH  061%=      5-min Rain = 0
KLES 201000Z 15006KT 23/14 A2995 RMK A01 T02290144  RH  061%=      5-min Rain = 0
KLES 201005Z 15006KT 23/15 A2995 RMK A01 T02280145  RH  062%=      5-min Rain = 0
KLES 201010Z 15006KT 23/15 A2995 RMK A01 T02270146  RH  063%=      5-min Rain = 0
KLES 201015Z 15007KT 23/15 A2995 RMK A01 T02270147  RH  063%=      5-min Rain = 0
KLES 201020Z 15006KT 23/15 A2995 RMK A01 T02270148  RH  064%=      5-min Rain = 0
KLES 201025Z 15006KT 23/15 A2995 RMK A01 T02270149  RH  064%=      5-min Rain = 0
KLES 201030Z 15006KT 23/15 A2995 RMK A01 T02270149  RH  064%=      5-min Rain = 0
KLES 201035Z 15007KT 23/15 A2995 RMK A01 T02270150  RH  065%=      5-min Rain = 0
KLES 201040Z 15006KT 23/15 A2995 RMK A01 T02270151  RH  065%=      5-min Rain = 0
KLES 201045Z 15007KT 23/15 A2995 RMK A01 T02280152  RH  065%=      5-min Rain = 0
KLES 201050Z 15007KT 23/15 A2995 RMK A01 T02280153  RH  066%=      5-min Rain = 0
KLES 201055Z 15006KT 23/16 A2995 RMK A01 T02290155  RH  066%=      5-min Rain = 0
KLES 201100Z 15006KT 23/16 A2995 RMK A01 T02280155  RH  066%=      5-min Rain = 0
KLES 201105Z 15006KT 23/16 A2995 RMK A01 T02270155  RH  067%=      5-min Rain = 0
KLES 201110Z 15006KT 23/16 A2995 RMK A01 T02260156  RH  068%=      5-min Rain = 0
KLES 201115Z 15007KT 23/16 A2995 RMK A01 T02260157  RH  068%=      5-min Rain = 0
KLES 201120Z 15006KT 23/16 A2995 RMK A01 T02260158  RH  068%=      5-min Rain = 0
KLES 201125Z 15007KT 23/16 A2995 RMK A01 T02260159  RH  069%=      5-min Rain = 0
KLES 201130Z 15007KT 23/16 A2995 RMK A01 T02270160  RH  069%=      5-min Rain = 0
KLES 201135Z 15007KT 23/16 A2996 RMK A01 T02260160  RH  070%=      5-min Rain = 0
KLES 201140Z 15007KT 23/16 A2996 RMK A01 T02270161  RH  070%=      5-min Rain = 0
KLES 201145Z 16006KT 23/16 A2996 RMK A01 T02260162  RH  070%=      5-min Rain = 0
KLES 201150Z 16006KT 23/16 A2996 RMK A01 T02260162  RH  071%=      5-min Rain = 0
KLES 201155Z 16006KT 23/16 A2996 RMK A01 T02250163  RH  071%=      5-min Rain = 0
KLES 201200Z 15006KT 22/16 A2996 RMK A01 T02230163  RH  072%=      5-min Rain = 0
KLES 201205Z 15006KT 22/16 A2996 RMK A01 T02230164  RH  073%=      5-min Rain = 0
KLES 201210Z 15006KT 22/17 A2996 RMK A01 T02230165  RH  073%=      5-min Rain = 0
KLES 201215Z 15006KT 22/17 A2996 RMK A01 T02230167  RH  074%=      5-min Rain = 0
KLES 201220Z 15007KT 22/17 A2996 RMK A01 T02240168  RH  074%=      5-min Rain = 0
KLES 201225Z 15007KT 23/17 A2996 RMK A01 T02260169  RH  074%=      5-min Rain = 0
KLES 201230Z 15007KT 23/17 A2996 RMK A01 T02270170  RH  074%=      5-min Rain = 0
KLES 201235Z 15007KT 23/17 A2996 RMK A01 T02290171  RH  073%=      5-min Rain = 0
KLES 201240Z 16008KT 23/17 A2996 RMK A01 T02320172  RH  073%=      5-min Rain = 0
KLES 201245Z 16008KT 23/17 A2996 RMK A01 T02330172  RH  072%=      5-min Rain = 0
KLES 201250Z 16008KT 24/17 A2996 RMK A01 T02360173  RH  072%=      5-min Rain = 0
KLES 201255Z 16008KT 24/17 A2996 RMK A01 T02380174  RH  071%=      5-min Rain = 0
KLES 201300Z 17008KT 24/17 A2997 RMK A01 T02390174  RH  071%=      5-min Rain = 0
KLES 201305Z 16009KT 24/18 A2997 RMK A01 T02410175  RH  070%=      5-min Rain = 0
KLES 201310Z 16010KT 24/18 A2997 RMK A01 T02430175  RH  069%=      5-min Rain = 0
KLES 201315Z 16010KT 25/18 A2996 RMK A01 T02450175  RH  068%=      5-min Rain = 0
KLES 201320Z 17010KT 25/18 A2996 RMK A01 T02470175  RH  068%=      5-min Rain = 0
KLES 201325Z 17010G16KT 25/18 A2996 RMK A01 T02480176  RH  067%=      5-min Rain = 0
KLES 201330Z 17013KT 25/17 A2996 RMK A01 T02490174  RH  066%=      5-min Rain = 0
KLES 201335Z 17013KT 25/17 A2996 RMK A01 T02500174  RH  066%=      5-min Rain = 0
KLES 201340Z 17013KT 25/17 A2997 RMK A01 T02510173  RH  065%=      5-min Rain = 0
KLES 201345Z 17013KT 25/17 A2997 RMK A01 T02530172  RH  064%=      5-min Rain = 0
KLES 201350Z 18013KT 25/17 A2997 RMK A01 T02540173  RH  064%=      5-min Rain = 0
KLES 201355Z 17014G19KT 26/17 A2997 RMK A01 T02550172  RH  063%=      5-min Rain = 0
KLES 201400Z 17014G20KT 26/17 A2997 RMK A01 T02560171  RH  062%=      5-min Rain = 0
KLES 201405Z 17015KT 26/17 A2997 RMK A01 T02580170  RH  062%=      5-min Rain = 0
KLES 201410Z 18015G20KT 26/17 A2997 RMK A01 T02580170  RH  061%=      5-min Rain = 0
KLES 201415Z 17015G20KT 26/17 A2997 RMK A01 T02600171  RH  061%=      5-min Rain = 0
KLES 201420Z 18014KT 26/17 A2997 RMK A01 T02620172  RH  061%=      5-min Rain = 0
KLES 201425Z 18015KT 26/17 A2997 RMK A01 T02640171  RH  060%=      5-min Rain = 0
KLES 201430Z 18015KT 26/17 A2997 RMK A01 T02630171  RH  060%=      5-min Rain = 0
KLES 201435Z 18014G19KT 27/17 A2997 RMK A01 T02660172  RH  059%=      5-min Rain = 0
KLES 201440Z 18013G18KT 27/17 A2997 RMK A01 T02680174  RH  059%=      5-min Rain = 0
KLES 201445Z 18013G18KT 27/17 A2997 RMK A01 T02710173  RH  058%=      5-min Rain = 0
KLES 201450Z 18014G20KT 27/17 A2997 RMK A01 T02710172  RH  057%=      5-min Rain = 0
KLES 201455Z 17013G18KT 27/17 A2997 RMK A01 T02720171  RH  057%=      5-min Rain = 0
KLES 201500Z 17013KT 28/17 A2997 RMK A01 T02750171  RH  056%=      5-min Rain = 0
KLES 201505Z 18013G19KT 27/17 A2997 RMK A01 T02740172  RH  056%=      5-min Rain = 0
KLES 201510Z 17014KT 28/17 A2997 RMK A01 T02770171  RH  055%=      5-min Rain = 0
KLES 201515Z 18013KT 28/17 A2997 RMK A01 T02770173  RH  056%=      5-min Rain = 0
KLES 201520Z 17013G19KT 28/17 A2997 RMK A01 T02810172  RH  054%=      5-min Rain = 0
KLES 201525Z 17014KT 28/17 A2997 RMK A01 T02820173  RH  054%=      5-min Rain = 0
KLES 201530Z 17013G18KT 28/17 A2997 RMK A01 T02830171  RH  053%=      5-min Rain = 0
KLES 201535Z 17014G19KT 29/17 A2997 RMK A01 T02850172  RH  053%=      5-min Rain = 0
KLES 201540Z 18013G18KT 29/17 A2997 RMK A01 T02870173  RH  053%=      5-min Rain = 0
KLES 201545Z 18012G17KT 29/17 A2997 RMK A01 T02880173  RH  052%=      5-min Rain = 0
KLES 201550Z 18012G17KT 29/18 A2997 RMK A01 T02920175  RH  052%=      5-min Rain = 0
KLES 201555Z 18012G17KT 29/17 A2997 RMK A01 T02920174  RH  052%=      5-min Rain = 0
KLES 201600Z 18013G19KT 29/17 A2997 RMK A01 T02940174  RH  051%=      5-min Rain = 0
KLES 201605Z 18012KT 30/18 A2996 RMK A01 T02950175  RH  051%=      5-min Rain = 0
KLES 201610Z 17013G18KT 30/17 A2996 RMK A01 T02970174  RH  050%=      5-min Rain = 0
KLES 201615Z 18013G18KT 30/17 A2996 RMK A01 T03000172  RH  049%=      5-min Rain = 0
KLES 201620Z 18010G16KT 30/17 A2996 RMK A01 T03020174  RH  049%=      5-min Rain = 0
KLES 201625Z 17012G18KT 30/17 A2996 RMK A01 T03030170  RH  047%=      5-min Rain = 0
KLES 201630Z 17012G18KT 31/17 A2996 RMK A01 T03050173  RH  048%=      5-min Rain = 0
KLES 201635Z 18014KT 31/17 A2996 RMK A01 T03090172  RH  046%=      5-min Rain = 0
KLES 201640Z 18013KT 31/17 A2996 RMK A01 T03080171  RH  046%=      5-min Rain = 0
KLES 201645Z 17012KT 31/17 A2996 RMK A01 T03100171  RH  046%=      5-min Rain = 0
KLES 201650Z 18012KT 31/17 A2996 RMK A01 T03120169  RH  044%=      5-min Rain = 0
KLES 201655Z 18013G18KT 31/17 A2996 RMK A01 T03140173  RH  045%=      5-min Rain = 0
KLES 201700Z 17012G17KT 32/17 A2996 RMK A01 T03160170  RH  044%=      5-min Rain = 0
KLES 201705Z 18011G17KT 32/17 A2996 RMK A01 T03200173  RH  044%=      5-min Rain = 0
KLES 201710Z 18012KT 32/17 A2996 RMK A01 T03200171  RH  043%=      5-min Rain = 0
KLES 201715Z 17011G20KT 32/17 A2996 RMK A01 T03230170  RH  042%=      5-min Rain = 0
KLES 201720Z 17010KT 33/17 A2996 RMK A01 T03260169  RH  041%=      5-min Rain = 0
KLES 201725Z 17011KT 33/17 A2996 RMK A01 T03290168  RH  040%=      5-min Rain = 0
KLES 201730Z 17011G16KT 33/17 A2996 RMK A01 T03300167  RH  040%=      5-min Rain = 0
KLES 201735Z 18011G16KT 33/17 A2996 RMK A01 T03310167  RH  039%=      5-min Rain = 0
KLES 201740Z 18012G18KT 33/17 A2996 RMK A01 T03330167  RH  039%=      5-min Rain = 0
KLES 201745Z 16011KT 33/16 A2996 RMK A01 T03340162  RH  038%=      5-min Rain = 0
KLES 201750Z 17011KT 34/17 A2996 RMK A01 T03390168  RH  038%=      5-min Rain = 0
KLES 201755Z 18011KT 34/17 A2996 RMK A01 T03410165  RH  037%=      5-min Rain = 0
KLES 201800Z 18010G16KT 34/17 A2995 RMK A01 T03410167  RH  037%=      5-min Rain = 0
KLES 201805Z 17011G16KT 34/16 A2995 RMK A01 T03420160  RH  036%=      5-min Rain = 0
KLES 201810Z 17011KT 34/16 A2995 RMK A01 T03430163  RH  036%=      5-min Rain = 0
KLES 201815Z 17011G17KT 34/16 A2995 RMK A01 T03440163  RH  036%=      5-min Rain = 0
KLES 201820Z 19010G15KT 35/16 A2995 RMK A01 T03460162  RH  035%=      5-min Rain = 0
KLES 201825Z 17010KT 35/16 A2995 RMK A01 T03500163  RH  034%=      5-min Rain = 0
KLES 201830Z 17008G14KT 35/16 A2995 RMK A01 T03500158  RH  034%=      5-min Rain = 0
KLES 201835Z 17012G18KT 35/16 A2995 RMK A01 T03520161  RH  034%=      5-min Rain = 0
KLES 201840Z 17011KT 36/16 A2995 RMK A01 T03550161  RH  033%=      5-min Rain = 0
KLES 201845Z 18010G15KT 36/16 A2994 RMK A01 T03560159  RH  033%=      5-min Rain = 0
KLES 201850Z 18010KT 35/16 A2994 RMK A01 T03530158  RH  033%=      5-min Rain = 0
KLES 201855Z 18010G15KT 36/16 A2994 RMK A01 T03560159  RH  033%=      5-min Rain = 0
KLES 201900Z 16009KT 36/16 A2994 RMK A01 T03570156  RH  032%=      5-min Rain = 0
KLES 201905Z 17010G18KT 36/16 A2994 RMK A01 T03590157  RH  032%=      5-min Rain = 0
KLES 201910Z 17011G16KT 36/15 A2994 RMK A01 T03610152  RH  030%=      5-min Rain = 0
KLES 201915Z 17009KT 36/15 A2994 RMK A01 T03600152  RH  030%=      5-min Rain = 0
KLES 201920Z 16013G19KT 36/15 A2993 RMK A01 T03640152  RH  030%=      5-min Rain = 0
KLES 201925Z 18010KT 36/15 A2993 RMK A01 T03620152  RH  030%=      5-min Rain = 0
KLES 201930Z 18009KT 37/15 A2993 RMK A01 T03650153  RH  030%=      5-min Rain = 0
KLES 201935Z 17010KT 37/15 A2993 RMK A01 T03660148  RH  029%=      5-min Rain = 0
KLES 201940Z 18010KT 37/15 A2993 RMK A01 T03660149  RH  029%=      5-min Rain = 0
KLES 201945Z 16009G15KT 37/15 A2992 RMK A01 T03650147  RH  029%=      5-min Rain = 0
KLES 201950Z 15010G15KT 36/15 A2992 RMK A01 T03640146  RH  028%=      5-min Rain = 0
KLES 201955Z 16010G15KT 37/15 A2992 RMK A01 T03670146  RH  028%=      5-min Rain = 0
KLES 202000Z 17010KT 37/15 A2992 RMK A01 T03690145  RH  028%=      5-min Rain = 0
KLES 202005Z 16009KT 37/15 A2992 RMK A01 T03730147  RH  027%=      5-min Rain = 0
KLES 202010Z 19009KT 37/15 A2991 RMK A01 T03740151  RH  028%=      5-min Rain = 0
KLES 202015Z 18008KT 37/15 A2991 RMK A01 T03710146  RH  027%=      5-min Rain = 0
KLES 202020Z 17010G15KT 37/15 A2991 RMK A01 T03740146  RH  027%=      5-min Rain = 0
KLES 202025Z 16009KT 37/14 A2991 RMK A01 T03730140  RH  026%=      5-min Rain = 0
KLES 202030Z 16007G12KT 37/14 A2991 RMK A01 T03740140  RH  026%=      5-min Rain = 0
KLES 202035Z 18010KT 38/15 A2991 RMK A01 T03750147  RH  027%=      5-min Rain = 0
KLES 202040Z 18007G14KT 38/14 A2991 RMK A01 T03760142  RH  026%=      5-min Rain = 0
KLES 202045Z 18008KT 38/15 A299 RMK A01 T03760146  RH  027%=      5-min Rain = 0
KLES 202050Z 17009KT 38/15 A299 RMK A01 T03810145  RH  026%=      5-min Rain = 0
KLES 202055Z 18012KT 38/15 A299 RMK A01 T03800150  RH  027%=      5-min Rain = 0
KLES 202100Z 18008KT 38/15 A299 RMK A01 T03790145  RH  026%=      5-min Rain = 0
KLES 202105Z 17008G14KT 38/14 A299 RMK A01 T03800140  RH  025%=      5-min Rain = 0
KLES 202110Z 18009KT 38/14 A299 RMK A01 T03780136  RH  025%=      5-min Rain = 0
KLES 202115Z 19007KT 38/14 A2989 RMK A01 T03760140  RH  026%=      5-min Rain = 0
KLES 202120Z 16009G14KT 38/14 A2989 RMK A01 T03780141  RH  026%=      5-min Rain = 0
KLES 202125Z 16010KT 38/14 A2989 RMK A01 T03830140  RH  025%=      5-min Rain = 0
KLES 202130Z 14010G16KT 38/14 A2989 RMK A01 T03840137  RH  024%=      5-min Rain = 0
KLES 202135Z 14009KT 38/13 A2989 RMK A01 T03820132  RH  024%=      5-min Rain = 0
KLES 202140Z 15011G16KT 38/13 A2989 RMK A01 T03830132  RH  023%=      5-min Rain = 0
KLES 202145Z 16010KT 38/13 A2989 RMK A01 T03840129  RH  023%=      5-min Rain = 0
KLES 202150Z 15010KT 38/13 A2988 RMK A01 T03840131  RH  023%=      5-min Rain = 0
KLES 202155Z 14009G14KT 39/13 A2988 RMK A01 T03850130  RH  023%=      5-min Rain = 0
KLES 202200Z 14010KT 39/13 A2988 RMK A01 T03850125  RH  022%=      5-min Rain = 0
KLES 202205Z 13010G16KT 38/12 A2988 RMK A01 T03840122  RH  022%=      5-min Rain = 0
KLES 202210Z 15010G15KT 38/13 A2988 RMK A01 T03840127  RH  023%=      5-min Rain = 0
KLES 202215Z 14008G14KT 39/13 A2987 RMK A01 T03850128  RH  022%=      5-min Rain = 0
KLES 202220Z 18008KT 39/13 A2987 RMK A01 T03860130  RH  023%=      5-min Rain = 0
KLES 202225Z 17011G17KT 39/13 A2987 RMK A01 T03850128  RH  023%=      5-min Rain = 0
KLES 202230Z 15008G13KT 39/12 A2987 RMK A01 T03860123  RH  022%=      5-min Rain = 0
KLES 202235Z 16008G15KT 39/13 A2987 RMK A01 T03860129  RH  023%=      5-min Rain = 0
KLES 202240Z 16011KT 39/13 A2987 RMK A01 T03880126  RH  022%=      5-min Rain = 0
KLES 202245Z 16010G16KT 39/12 A2987 RMK A01 T03880123  RH  022%=      5-min Rain = 0
KLES 202250Z 18007G12KT 38/13 A2987 RMK A01 T03840125  RH  022%=      5-min Rain = 0
KLES 202255Z 16008G15KT 39/12 A2987 RMK A01 T03850123  RH  022%=      5-min Rain = 0
KLES 202300Z 16010G15KT 39/13 A2986 RMK A01 T03850126  RH  022%=      5-min Rain = 0
KLES 202305Z 14008G16KT 39/13 A2986 RMK A01 T03850126  RH  022%=      5-min Rain = 0
KLES 202310Z 17010KT 38/13 A2986 RMK A01 T03830132  RH  023%=      5-min Rain = 0
KLES 202315Z 15012G17KT 38/12 A2986 RMK A01 T03820122  RH  022%=      5-min Rain = 0
KLES 202320Z 14011KT 38/12 A2986 RMK A01 T03830124  RH  022%=      5-min Rain = 0
KLES 202325Z 13009G14KT 38/12 A2986 RMK A01 T03800122  RH  022%=      5-min Rain = 0
KLES 202330Z 15009G14KT 38/13 A2986 RMK A01 T03800126  RH  023%=      5-min Rain = 0
KLES 202335Z 14010G16KT 38/13 A2986 RMK A01 T03800126  RH  023%=      5-min Rain = 0
KLES 202340Z 15010KT 38/13 A2986 RMK A01 T03790130  RH  024%=      5-min Rain = 0
KLES 202345Z 15011KT 38/13 A2986 RMK A01 T03790128  RH  023%=      5-min Rain = 0
KLES 202350Z 15012KT 38/13 A2986 RMK A01 T03780126  RH  023%=      5-min Rain = 0
KLES 202355Z 15011G16KT 38/12 A2985 RMK A01 T03770120  RH  022%=      5-min Rain = 0
KLES 210000Z 16010G15KT 38/12 A2985 RMK A01 T03770120  RH  022%=      5-min Rain = 0
KLES 210005Z 15010KT 38/12 A2985 RMK A01 T03760120  RH  022%=      5-min Rain = 0
KLES 210010Z 15009KT 38/12 A2986 RMK A01 T03750120  RH  023%=      5-min Rain = 0
KLES 210015Z 15009KT 38/12 A2986 RMK A01 T03750120  RH  022%=      5-min Rain = 0
KLES 210020Z 15010KT 37/13 A2986 RMK A01 T03730127  RH  024%=      5-min Rain = 0
KLES 210025Z 14011KT 37/12 A2986 RMK A01 T03700122  RH  024%=      5-min Rain = 0
KLES 210030Z 15010KT 37/13 A2985 RMK A01 T03680127  RH  025%=      5-min Rain = 0
KLES 210035Z 15009KT 37/13 A2985 RMK A01 T03670126  RH  024%=      5-min Rain = 0
KLES 210040Z 15009KT 37/13 A2985 RMK A01 T03660127  RH  025%=      5-min Rain = 0
KLES 210045Z 15009KT 36/13 A2986 RMK A01 T03640131  RH  026%=      5-min Rain = 0
KLES 210050Z 15009KT 36/14 A2986 RMK A01 T03620135  RH  027%=      5-min Rain = 0
KLES 210055Z 15008KT 36/14 A2986 RMK A01 T03590136  RH  028%=      5-min Rain = 0
KLES 210100Z 15010G15KT 36/13 A2986 RMK A01 T03580131  RH  027%=      5-min Rain = 0
KLES 210105Z 15011KT 36/14 A2986 RMK A01 T03560135  RH  028%=      5-min Rain = 0
KLES 210110Z 14010KT 35/14 A2986 RMK A01 T03530137  RH  029%=      5-min Rain = 0
KLES 210115Z 15011KT 35/13 A2986 RMK A01 T03520134  RH  028%=      5-min Rain = 0
KLES 210120Z 15012KT 35/13 A2986 RMK A01 T03510133  RH  028%=      5-min Rain = 0
KLES 210125Z 15010KT 35/14 A2986 RMK A01 T03490136  RH  029%=      5-min Rain = 0
KLES 210130Z 15011KT 35/14 A2986 RMK A01 T03460136  RH  030%=      5-min Rain = 0
KLES 210135Z 15011KT 34/14 A2986 RMK A01 T03440135  RH  030%=      5-min Rain = 0
KLES 210140Z 15011KT 34/14 A2986 RMK A01 T03420135  RH  030%=      5-min Rain = 0
KLES 210145Z 15012KT 34/14 A2987 RMK A01 T03400136  RH  030%=      5-min Rain = 0
KLES 210150Z 15011KT 34/14 A2987 RMK A01 T03380136  RH  031%=      5-min Rain = 0
KLES 210155Z 15012KT 34/14 A2987 RMK A01 T03370135  RH  031%=      5-min Rain = 0
KLES 210200Z 15012KT 34/13 A2987 RMK A01 T03360133  RH  031%=      5-min Rain = 0
KLES 210205Z 15012G17KT 34/13 A2987 RMK A01 T03350132  RH  031%=      5-min Rain = 0
KLES 210210Z 15012KT 33/13 A2987 RMK A01 T03330131  RH  031%=      5-min Rain = 0
KLES 210215Z 16011G16KT 33/13 A2987 RMK A01 T03320131  RH  031%=      5-min Rain = 0
KLES 210220Z 16012G17KT 33/13 A2987 RMK A01 T03310130  RH  031%=      5-min Rain = 0
KLES 210225Z 16013G18KT 33/13 A2987 RMK A01 T03310129  RH  031%=      5-min Rain = 0
KLES 210230Z 15010G15KT 33/13 A2987 RMK A01 T03290128  RH  031%=      5-min Rain = 0
KLES 210235Z 16012G17KT 33/13 A2987 RMK A01 T03270127  RH  031%=      5-min Rain = 0
KLES 210240Z 15013KT 33/13 A2988 RMK A01 T03260126  RH  031%=      5-min Rain = 0
KLES 210245Z 16013G18KT 33/12 A2988 RMK A01 T03250124  RH  031%=      5-min Rain = 0
KLES 210250Z 16014G21KT 33/12 A2988 RMK A01 T03250123  RH  030%=      5-min Rain = 0
KLES 210255Z 16013KT 32/12 A2989 RMK A01 T03240121  RH  030%=      5-min Rain = 0
KLES 210300Z 16014KT 32/12 A2989 RMK A01 T03230120  RH  030%=      5-min Rain = 0
KLES 210305Z 16013KT 32/12 A2989 RMK A01 T03220119  RH  030%=      5-min Rain = 0
KLES 210310Z 16013KT 32/12 A2989 RMK A01 T03200119  RH  030%=      5-min Rain = 0
KLES 210315Z 16013G18KT 32/12 A2989 RMK A01 T03190118  RH  030%=      5-min Rain = 0
KLES 210320Z 16014KT 32/12 A299 RMK A01 T03180117  RH  030%=      5-min Rain = 0
KLES 210325Z 16014KT 32/12 A299 RMK A01 T03170116  RH  030%=      5-min Rain = 0
KLES 210330Z 16014G19KT 32/12 A299 RMK A01 T03160115  RH  030%=      5-min Rain = 0
KLES 210335Z 16012KT 31/12 A299 RMK A01 T03140115  RH  030%=      5-min Rain = 0
KLES 210340Z 16012KT 31/11 A299 RMK A01 T03120114  RH  031%=      5-min Rain = 0
KLES 210345Z 16011G16KT 31/11 A299 RMK A01 T03110114  RH  031%=      5-min Rain = 0
KLES 210350Z 16012G17KT 31/11 A299 RMK A01 T03090114  RH  031%=      5-min Rain = 0
KLES 210355Z 16011KT 31/11 A2991 RMK A01 T03080114  RH  031%=      5-min Rain = 0
KLES 210400Z 17013G18KT 31/11 A2991 RMK A01 T03070114  RH  032%=      5-min Rain = 0
KLES 210405Z 17012G17KT 31/11 A2991 RMK A01 T03060114  RH  032%=      5-min Rain = 0
KLES 210410Z 16012KT 31/12 A2991 RMK A01 T03050115  RH  032%=      5-min Rain = 0
KLES 210415Z 16011KT 30/12 A2991 RMK A01 T03030115  RH  033%=      5-min Rain = 0
KLES 210420Z 17012KT 30/12 A2992 RMK A01 T03020115  RH  033%=      5-min Rain = 0
KLES 210425Z 17012G17KT 30/12 A2992 RMK A01 T03020116  RH  033%=      5-min Rain = 0
KLES 210430Z 17012KT 30/12 A2992 RMK A01 T03010116  RH  033%=      5-min Rain = 0
KLES 210435Z 17012KT 30/12 A2992 RMK A01 T02990117  RH  034%=      5-min Rain = 0
KLES 210440Z 17013G18KT 30/12 A2992 RMK A01 T02980117  RH  034%=      5-min Rain = 0
KLES 210445Z 17013KT 30/12 A2993 RMK A01 T02970118  RH  034%=      5-min Rain = 0
KLES 210450Z 17012KT 30/12 A2993 RMK A01 T02960118  RH  035%=      5-min Rain = 0
KLES 210455Z 17013KT 30/12 A2993 RMK A01 T02950118  RH  035%=      5-min Rain = 0

Page generated in 0.0092 seconds.